createdAt,value
2019-05-22T00:04:06.863Z,27.00
2019-05-22T00:09:16.778Z,26.37
2019-05-22T00:14:23.653Z,25.90
2019-05-22T00:19:30.505Z,27.03
2019-05-22T00:24:37.173Z,25.53
2019-05-22T00:29:44.653Z,25.60
2019-05-22T00:34:49.531Z,26.85
2019-05-22T00:39:55.108Z,23.90
2019-05-22T00:44:59.968Z,21.73
2019-05-22T00:50:10.595Z,19.53
2019-05-22T00:55:17.520Z,18.77
2019-05-22T01:00:28.546Z,17.02
2019-05-22T01:05:35.564Z,18.47
2019-05-22T01:10:43.937Z,19.27
2019-05-22T01:15:51.177Z,19.00
2019-05-22T01:20:59.289Z,19.80
2019-05-22T01:26:05.555Z,18.93
2019-05-22T01:31:13.486Z,20.30
2019-05-22T01:36:21.867Z,19.90
2019-05-22T01:41:30.703Z,15.07
2019-05-22T01:46:39.895Z,13.30
2019-05-22T01:51:46.656Z,12.13
2019-05-22T01:56:52.279Z,11.60
2019-05-22T02:01:57.991Z,12.10
2019-05-22T02:07:04.025Z,11.53
2019-05-22T02:12:16.108Z,11.60
2019-05-22T02:17:24.087Z,12.20
2019-05-22T02:22:29.564Z,7.60
2019-05-22T02:27:35.655Z,8.20
2019-05-22T02:32:41.222Z,7.97
2019-05-22T02:37:47.969Z,7.53
2019-05-22T02:42:53.680Z,8.77
2019-05-22T02:48:00.647Z,8.93
2019-05-22T02:53:09.626Z,8.53
2019-05-22T02:58:16.878Z,8.70
2019-05-22T03:03:21.829Z,9.80
2019-05-22T03:08:58.654Z,9.67
2019-05-22T03:14:09.379Z,9.20
2019-05-22T03:19:17.960Z,9.03
2019-05-22T03:24:23.051Z,9.90
2019-05-22T03:29:33.541Z,10.73
2019-05-22T03:34:39.928Z,9.90
2019-05-22T03:39:46.296Z,10.53
2019-05-22T03:44:53.330Z,9.00
2019-05-22T03:49:58.947Z,9.00
2019-05-22T03:55:07.527Z,8.03
2019-05-22T04:00:19.791Z,9.28
2019-05-22T04:05:25.591Z,9.47
2019-05-22T04:10:34.173Z,8.23
2019-05-22T04:15:40.172Z,9.53
2019-05-22T04:20:46.051Z,10.33
2019-05-22T04:25:53.507Z,10.57
2019-05-22T04:31:00.196Z,6.03
2019-05-22T04:36:10.133Z,7.60
2019-05-22T04:41:14.019Z,7.93
2019-05-22T04:46:19.382Z,6.60
2019-05-22T04:51:27.256Z,8.23
2019-05-22T04:56:32.474Z,7.23
2019-05-22T05:01:37.594Z,5.63
2019-05-22T05:06:43.724Z,6.23
2019-05-22T05:11:49.642Z,5.33
2019-05-22T05:16:54.730Z,7.97
2019-05-22T05:21:59.594Z,7.83
2019-05-22T05:27:05.159Z,8.17
2019-05-22T05:32:11.953Z,7.15
2019-05-22T05:37:18.727Z,6.03
2019-05-22T05:42:23.865Z,6.80
2019-05-22T05:47:28.810Z,6.77
2019-05-22T05:52:34.024Z,7.37
2019-05-22T05:57:45.513Z,6.73
2019-05-22T06:02:56.428Z,5.80
2019-05-22T06:07:59.482Z,6.23
2019-05-22T06:13:05.258Z,6.37
2019-05-22T06:18:35.756Z,5.83
2019-05-22T06:23:45.116Z,6.70
2019-05-22T06:28:52.338Z,7.50
2019-05-22T06:33:58.403Z,8.77
2019-05-22T06:39:05.066Z,9.60
2019-05-22T06:44:34.111Z,8.85
2019-05-22T06:49:40.620Z,6.67
2019-05-22T06:54:45.562Z,6.57
2019-05-22T07:00:11.433Z,6.60
2019-05-22T07:04:59.112Z,6.20
2019-05-22T07:10:06.810Z,6.30
2019-05-22T07:15:20.834Z,3.92
2019-05-22T07:20:28.747Z,4.37
2019-05-22T07:25:35.617Z,4.57
2019-05-22T07:30:40.795Z,3.63
2019-05-22T07:36:07.710Z,4.93
2019-05-22T07:40:53.099Z,3.47
2019-05-22T07:45:59.071Z,4.00
2019-05-22T07:51:05.968Z,3.67
2019-05-22T07:56:12.853Z,4.87
2019-05-22T08:01:18.478Z,4.70
2019-05-22T08:06:23.461Z,4.87
2019-05-22T08:11:39.792Z,3.50
2019-05-22T08:22:29.610Z,4.27
2019-05-22T08:33:17.702Z,4.60
2019-05-22T08:38:28.460Z,4.37
2019-05-22T08:43:56.096Z,4.50
2019-05-22T08:54:35.987Z,5.10
2019-05-22T08:59:40.945Z,4.40
2019-05-22T09:04:46.598Z,5.43
2019-05-22T09:09:51.459Z,5.17
2019-05-22T09:14:56.515Z,5.97
2019-05-22T09:20:01.737Z,5.83
2019-05-22T09:25:10.350Z,5.60
2019-05-22T09:30:15.407Z,6.10
2019-05-22T09:35:20.536Z,5.30
2019-05-22T09:40:25.468Z,4.85
2019-05-22T09:45:30.974Z,4.10
2019-05-22T09:50:36.708Z,5.20
2019-05-22T09:55:41.731Z,5.60
2019-05-22T10:00:46.584Z,4.90
2019-05-22T10:05:51.816Z,4.37
2019-05-22T10:10:56.927Z,3.80
2019-05-22T10:16:02.686Z,2.70
2019-05-22T10:21:09.527Z,3.97
2019-05-22T10:26:14.832Z,3.90
2019-05-22T10:31:21.814Z,4.60
2019-05-22T10:36:26.815Z,4.73
2019-05-22T10:41:32.179Z,4.77
2019-05-22T10:46:37.958Z,5.33
2019-05-22T10:51:42.869Z,5.07
2019-05-22T10:56:47.792Z,5.50
2019-05-22T11:01:52.995Z,5.37
2019-05-22T11:06:58.300Z,5.33
2019-05-22T11:12:04.975Z,5.67
2019-05-22T11:17:10.861Z,5.53
2019-05-22T11:22:17.489Z,5.70
2019-05-22T11:27:22.772Z,7.23
2019-05-22T11:32:27.998Z,7.90
2019-05-22T11:37:33.238Z,8.37
2019-05-22T11:42:39.665Z,9.07
2019-05-22T11:47:48.159Z,8.13
2019-05-22T11:52:53.365Z,9.37
2019-05-22T11:57:58.328Z,9.73
2019-05-22T12:03:04.548Z,9.97
2019-05-22T12:08:13.468Z,13.90
2019-05-22T12:13:25.224Z,16.87
2019-05-22T12:24:26.209Z,15.73
2019-05-22T12:29:24.672Z,15.87
2019-05-22T12:34:30.054Z,15.03
2019-05-22T12:39:35.024Z,16.70
2019-05-22T12:44:41.204Z,13.47
2019-05-22T12:49:46.416Z,16.13
2019-05-22T12:54:53.053Z,14.50
2019-05-22T13:00:02.191Z,15.63
2019-05-22T13:05:08.394Z,15.33
2019-05-22T13:10:14.718Z,13.90
2019-05-22T13:15:19.998Z,12.75
2019-05-22T13:20:41.889Z,15.77
2019-05-22T13:25:37.139Z,14.20
2019-05-22T13:30:42.964Z,13.57
2019-05-22T13:35:47.967Z,15.67
2019-05-22T13:40:54.301Z,15.73
2019-05-22T13:45:59.520Z,16.20
2019-05-22T13:51:06.081Z,15.73
2019-05-22T14:01:51.900Z,17.17
2019-05-22T14:06:57.286Z,16.63
2019-05-22T14:12:02.623Z,16.00
2019-05-22T14:17:07.869Z,17.30
2019-05-22T14:22:12.761Z,16.23
2019-05-22T14:27:17.715Z,15.67
2019-05-22T14:32:29.811Z,15.53
2019-05-22T14:37:30.547Z,15.67
2019-05-22T14:42:35.483Z,13.40
2019-05-22T14:47:40.444Z,17.23
2019-05-22T14:52:45.418Z,15.83
2019-05-22T14:57:50.470Z,14.03
2019-05-22T15:02:58.486Z,16.23
2019-05-22T15:08:02.259Z,13.23
2019-05-22T15:13:08.484Z,14.90
2019-05-22T15:18:13.676Z,14.50
2019-05-22T15:23:19.072Z,14.50
2019-05-22T15:28:26.938Z,11.50
2019-05-22T15:33:32.065Z,13.90
2019-05-22T15:38:39.692Z,12.03
2019-05-22T15:43:51.663Z,12.30
2019-05-22T15:48:54.478Z,12.57
2019-05-22T15:54:02.205Z,11.50
2019-05-22T15:59:10.258Z,13.03
2019-05-22T16:04:18.433Z,12.53
2019-05-22T16:09:25.574Z,13.03
2019-05-22T16:14:31.607Z,12.20
2019-05-22T16:19:41.738Z,11.17
2019-05-22T16:24:46.713Z,11.23
2019-05-22T16:29:56.602Z,10.87
2019-05-22T16:35:12.035Z,10.93
2019-05-22T16:40:22.224Z,10.77
2019-05-22T16:45:28.451Z,9.63
2019-05-22T16:50:37.792Z,8.90
2019-05-22T16:55:51.381Z,7.70
2019-05-22T17:01:26.474Z,8.83
2019-05-22T17:06:51.521Z,7.03
2019-05-22T17:11:57.491Z,7.67
2019-05-22T17:17:26.571Z,7.53
2019-05-22T17:22:32.037Z,8.03
2019-05-22T17:27:37.797Z,8.10
2019-05-22T17:32:45.522Z,5.53
2019-05-22T17:37:50.712Z,7.70
2019-05-22T17:42:56.802Z,7.50
2019-05-22T17:48:03.157Z,8.23
2019-05-22T17:53:08.519Z,8.03
2019-05-22T17:58:13.800Z,7.03
2019-05-22T18:03:20.124Z,6.87
2019-05-22T18:08:45.419Z,6.70
2019-05-22T18:13:59.901Z,5.97
2019-05-22T18:19:05.540Z,6.27
2019-05-22T18:24:10.778Z,5.62
2019-05-22T18:29:15.877Z,4.80
2019-05-22T18:34:20.776Z,5.60
2019-05-22T18:39:25.722Z,4.23
2019-05-22T18:44:30.670Z,5.73
2019-05-22T18:49:35.648Z,4.43
2019-05-22T18:54:40.521Z,3.73
2019-05-22T18:59:45.993Z,4.70
2019-05-22T19:04:51.700Z,4.30
2019-05-22T19:09:56.550Z,4.57
2019-05-22T19:15:01.623Z,4.87
2019-05-22T19:20:17.672Z,3.60
2019-05-22T19:25:22.637Z,3.37
2019-05-22T19:30:28.272Z,3.60
2019-05-22T19:35:33.296Z,3.50
2019-05-22T19:40:38.302Z,3.30
2019-05-22T19:45:43.968Z,3.40
2019-05-22T19:50:49.811Z,3.90
2019-05-22T19:55:54.852Z,3.07
2019-05-22T20:00:59.831Z,2.93
2019-05-22T20:06:05.582Z,2.80
2019-05-22T20:11:10.525Z,3.37
2019-05-22T20:16:15.898Z,3.20
2019-05-22T20:21:21.429Z,3.67
2019-05-22T20:26:26.382Z,3.37
2019-05-22T20:31:31.286Z,2.53
2019-05-22T20:36:36.609Z,3.13
2019-05-22T20:41:41.635Z,3.52
2019-05-22T20:46:46.650Z,4.03
2019-05-22T20:51:52.931Z,3.30
2019-05-22T20:56:59.675Z,3.33
2019-05-22T21:02:06.634Z,4.00
2019-05-22T21:07:12.060Z,3.40
2019-05-22T21:12:19.717Z,3.60
2019-05-22T21:17:25.439Z,4.07
2019-05-22T21:22:32.425Z,3.70
2019-05-22T21:27:39.970Z,3.50
2019-05-22T21:32:45.421Z,4.23
2019-05-22T21:37:50.566Z,3.40
2019-05-22T21:42:57.282Z,3.77
2019-05-22T21:48:02.333Z,3.70
2019-05-22T21:53:10.702Z,3.50
2019-05-22T21:58:16.412Z,3.50
2019-05-22T22:03:25.274Z,3.77
2019-05-22T22:08:30.912Z,3.80
2019-05-22T22:13:37.541Z,3.57
2019-05-22T22:18:43.718Z,3.63
2019-05-22T22:23:48.762Z,4.17
2019-05-22T22:28:53.706Z,3.87
2019-05-22T22:34:04.217Z,4.43
2019-05-22T22:39:12.124Z,3.60
2019-05-22T22:44:17.059Z,4.17
2019-05-22T22:49:24.084Z,3.80
2019-05-22T22:54:30.464Z,4.07
2019-05-22T22:59:36.430Z,4.40
2019-05-22T23:04:43.060Z,3.53
2019-05-22T23:09:48.825Z,3.60
2019-05-22T23:14:57.641Z,3.60
2019-05-22T23:20:03.416Z,3.90
2019-05-22T23:25:09.429Z,3.50
2019-05-22T23:30:14.333Z,3.67
2019-05-22T23:35:21.305Z,3.50
2019-05-22T23:40:29.795Z,3.60
2019-05-22T23:45:35.625Z,3.40
2019-05-22T23:50:40.873Z,3.50
2019-05-22T23:55:48.792Z,3.83
